createdAt,value
2023-02-11T00:00:18.278Z,-9.97
2023-02-11T00:02:47.496Z,-10.01
2023-02-11T00:05:14.344Z,-9.97
2023-02-11T00:07:40.826Z,-9.98
2023-02-11T00:10:10.517Z,-10.04
2023-02-11T00:12:37.635Z,-10.01
2023-02-11T00:15:05.324Z,-10.06
2023-02-11T00:17:32.122Z,-10.14
2023-02-11T00:19:58.552Z,-10.22
2023-02-11T00:22:25.075Z,-10.26
2023-02-11T00:24:51.498Z,-10.31
2023-02-11T00:27:18.070Z,-10.33
2023-02-11T00:29:44.588Z,-10.33
2023-02-11T00:32:11.057Z,-10.34
2023-02-11T00:34:38.174Z,-10.30
2023-02-11T00:37:05.166Z,-10.38
2023-02-11T00:39:31.951Z,-10.48
2023-02-11T00:41:58.654Z,-10.53
2023-02-11T00:44:25.132Z,-10.55
2023-02-11T00:46:51.604Z,-10.59
2023-02-11T00:49:18.067Z,-10.63
2023-02-11T00:51:44.543Z,-10.65
2023-02-11T00:54:11.090Z,-10.62
2023-02-11T00:56:37.555Z,-10.70
2023-02-11T00:59:03.993Z,-10.66
2023-02-11T01:01:30.446Z,-10.63
2023-02-11T01:03:56.942Z,-10.63
2023-02-11T01:06:23.403Z,-10.60
2023-02-11T01:08:49.845Z,-10.54
2023-02-11T01:11:18.098Z,-10.54
2023-02-11T01:13:44.560Z,-10.55
2023-02-11T01:16:11.566Z,-10.57
2023-02-11T01:18:38.577Z,-10.64
2023-02-11T01:21:05.138Z,-10.72
2023-02-11T01:23:31.605Z,-10.79
2023-02-11T01:25:58.042Z,-10.82
2023-02-11T01:28:25.945Z,-10.76
2023-02-11T01:30:52.654Z,-10.71
2023-02-11T01:33:19.382Z,-10.76
2023-02-11T01:35:45.883Z,-10.88
2023-02-11T01:38:20.386Z,-10.95
2023-02-11T01:40:50.763Z,-10.90
2023-02-11T01:43:17.340Z,-10.84
2023-02-11T01:45:47.184Z,-10.84
2023-02-11T01:48:15.675Z,-10.81
2023-02-11T01:50:42.804Z,-10.73
2023-02-11T01:53:29.139Z,-10.76
2023-02-11T01:56:15.239Z,-10.77
2023-02-11T01:58:44.244Z,-10.80
2023-02-11T02:01:12.950Z,-10.80
2023-02-11T02:03:42.094Z,-10.82
2023-02-11T02:06:21.278Z,-10.88
2023-02-11T02:08:52.490Z,-10.82
2023-02-11T02:11:19.056Z,-10.79
2023-02-11T02:13:45.990Z,-10.80
2023-02-11T02:16:21.997Z,-10.94
2023-02-11T02:18:56.220Z,-11.05
2023-02-11T02:21:40.994Z,-11.11
2023-02-11T02:24:21.545Z,-11.08
2023-02-11T02:27:04.341Z,-11.09
2023-02-11T02:29:49.410Z,-11.09
2023-02-11T02:32:38.892Z,-11.23
2023-02-11T02:35:14.522Z,-11.23
2023-02-11T02:37:45.457Z,-11.23
2023-02-11T02:40:16.156Z,-11.23
2023-02-11T02:42:43.962Z,-11.28
2023-02-11T02:45:11.266Z,-11.29
2023-02-11T02:47:37.757Z,-11.25
2023-02-11T02:50:05.707Z,-11.34
2023-02-11T02:52:32.118Z,-11.42
2023-02-11T02:54:58.574Z,-11.41
2023-02-11T02:57:43.613Z,-11.50
2023-02-11T03:00:18.014Z,-11.44
2023-02-11T03:02:58.169Z,-11.38
2023-02-11T03:05:32.730Z,-11.45
2023-02-11T03:08:02.962Z,-11.55
2023-02-11T03:10:31.535Z,-11.63
2023-02-11T03:12:58.811Z,-11.62
2023-02-11T03:15:27.584Z,-11.52
2023-02-11T03:17:56.072Z,-11.51
2023-02-11T03:20:22.979Z,-11.51
2023-02-11T03:22:52.572Z,-11.55
2023-02-11T03:25:21.230Z,-11.57
2023-02-11T03:27:52.824Z,-11.61
2023-02-11T03:30:26.684Z,-11.63
2023-02-11T03:32:58.018Z,-11.58
2023-02-11T03:35:27.992Z,-11.61
2023-02-11T03:38:00.755Z,-11.57
2023-02-11T03:40:29.717Z,-11.64
2023-02-11T03:43:19.238Z,-11.68
2023-02-11T03:45:47.335Z,-11.68
2023-02-11T03:48:20.293Z,-11.68
2023-02-11T03:50:48.677Z,-11.70
2023-02-11T03:53:15.797Z,-11.67
2023-02-11T03:55:43.069Z,-11.66
2023-02-11T03:58:09.681Z,-11.67
2023-02-11T04:00:39.525Z,-11.61
2023-02-11T04:03:06.717Z,-11.59
2023-02-11T04:05:33.491Z,-11.74
2023-02-11T04:07:59.966Z,-11.71
2023-02-11T04:10:26.453Z,-11.69
2023-02-11T04:12:52.880Z,-11.72
2023-02-11T04:15:19.474Z,-11.70
2023-02-11T04:17:45.963Z,-11.64
2023-02-11T04:20:12.399Z,-11.57
2023-02-11T04:22:39.152Z,-11.57
2023-02-11T04:25:06.100Z,-11.53
2023-02-11T04:27:32.569Z,-11.56
2023-02-11T04:29:59.020Z,-11.57
2023-02-11T04:32:25.453Z,-11.55
2023-02-11T04:34:52.064Z,-11.62
2023-02-11T04:37:18.489Z,-11.73
2023-02-11T04:39:44.920Z,-11.75
2023-02-11T04:42:11.357Z,-11.67
2023-02-11T04:44:37.912Z,-11.57
2023-02-11T04:47:04.416Z,-11.47
2023-02-11T04:49:30.913Z,-11.44
2023-02-11T04:51:57.400Z,-11.40
2023-02-11T04:54:23.817Z,-11.29
2023-02-11T04:56:51.118Z,-11.22
2023-02-11T04:59:17.625Z,-11.15
2023-02-11T05:01:44.085Z,-11.14
2023-02-11T05:04:10.623Z,-11.16
2023-02-11T05:06:38.313Z,-11.13
2023-02-11T05:09:04.792Z,-11.16
2023-02-11T05:11:31.346Z,-11.18
2023-02-11T05:13:57.870Z,-11.08
2023-02-11T05:16:24.329Z,-10.99
2023-02-11T05:18:52.524Z,-10.97
2023-02-11T05:21:19.582Z,-10.95
2023-02-11T05:23:46.110Z,-10.95
2023-02-11T05:26:12.609Z,-10.91
2023-02-11T05:28:39.509Z,-10.89
2023-02-11T05:31:06.007Z,-10.83
2023-02-11T05:33:32.479Z,-10.76
2023-02-11T05:36:00.058Z,-10.73
2023-02-11T05:38:26.905Z,-10.73
2023-02-11T05:40:53.855Z,-10.76
2023-02-11T05:43:20.334Z,-10.63
2023-02-11T05:45:46.804Z,-10.55
2023-02-11T05:48:13.251Z,-10.49
2023-02-11T05:50:39.680Z,-10.44
2023-02-11T05:53:06.859Z,-10.40
2023-02-11T05:55:33.763Z,-10.36
2023-02-11T05:58:00.258Z,-10.29
2023-02-11T06:00:27.116Z,-10.28
2023-02-11T06:02:53.719Z,-10.24
2023-02-11T06:05:20.527Z,-10.30
2023-02-11T06:07:47.002Z,-10.23
2023-02-11T06:10:13.433Z,-10.17
2023-02-11T06:12:39.935Z,-10.14
2023-02-11T06:15:06.874Z,-10.08
2023-02-11T06:17:33.848Z,-10.08
2023-02-11T06:20:01.236Z,-10.10
2023-02-11T06:22:27.680Z,-10.08
2023-02-11T06:25:01.276Z,-10.03
2023-02-11T06:27:28.661Z,-9.94
2023-02-11T06:29:55.147Z,-9.90
2023-02-11T06:32:42.264Z,-9.86
2023-02-11T06:35:11.379Z,-9.85
2023-02-11T06:37:38.309Z,-9.80
2023-02-11T06:40:04.889Z,-9.82
2023-02-11T06:42:31.332Z,-9.79
2023-02-11T06:44:57.810Z,-9.70
2023-02-11T06:47:24.302Z,-9.65
2023-02-11T06:49:50.733Z,-9.56
2023-02-11T06:52:17.242Z,-9.55
2023-02-11T06:54:43.667Z,-9.51
2023-02-11T06:57:10.105Z,-9.54
2023-02-11T06:59:36.570Z,-9.51
2023-02-11T07:02:03.090Z,-9.45
2023-02-11T07:04:29.564Z,-9.44
2023-02-11T07:06:56.028Z,-9.45
2023-02-11T07:09:22.512Z,-9.37
2023-02-11T07:11:48.950Z,-9.28
2023-02-11T07:14:15.405Z,-9.25
2023-02-11T07:16:41.844Z,-9.21
2023-02-11T07:19:08.352Z,-9.14
2023-02-11T07:21:34.877Z,-9.09
2023-02-11T07:24:01.504Z,-9.06
2023-02-11T07:26:28.951Z,-9.01
2023-02-11T07:28:55.773Z,-8.96
2023-02-11T07:31:24.517Z,-8.87
2023-02-11T07:33:52.186Z,-8.81
2023-02-11T07:36:18.621Z,-8.74
2023-02-11T07:38:45.684Z,-8.70
2023-02-11T07:41:13.882Z,-8.72
2023-02-11T07:43:40.409Z,-8.73
2023-02-11T07:46:10.432Z,-8.67
2023-02-11T07:48:37.169Z,-8.79
2023-02-11T07:51:11.337Z,-8.83
2023-02-11T07:53:38.546Z,-8.74
2023-02-11T07:56:05.602Z,-8.74
2023-02-11T07:58:32.711Z,-8.74
2023-02-11T08:01:06.535Z,-8.67
2023-02-11T08:03:33.660Z,-8.55
2023-02-11T08:06:03.636Z,-8.43
2023-02-11T08:08:30.097Z,-8.35
2023-02-11T08:10:56.618Z,-8.31
2023-02-11T08:13:23.070Z,-8.23
2023-02-11T08:15:49.924Z,-8.21
2023-02-11T08:18:16.540Z,-8.14
2023-02-11T08:20:42.985Z,-8.07
2023-02-11T08:23:09.625Z,-8.04
2023-02-11T08:25:36.067Z,-7.94
2023-02-11T08:28:02.504Z,-7.87
2023-02-11T08:30:29.332Z,-7.78
2023-02-11T08:32:56.605Z,-7.71
2023-02-11T08:35:23.086Z,-7.64
2023-02-11T08:37:49.529Z,-7.57
2023-02-11T08:40:16.034Z,-7.50
2023-02-11T08:42:42.540Z,-7.41
2023-02-11T08:45:10.461Z,-7.33
2023-02-11T08:47:37.139Z,-7.26
2023-02-11T08:50:04.159Z,-7.16
2023-02-11T08:52:30.622Z,-7.08
2023-02-11T08:54:57.123Z,-6.98
2023-02-11T08:57:23.680Z,-6.90
2023-02-11T08:59:50.184Z,-6.79
2023-02-11T09:02:16.662Z,-6.70
2023-02-11T09:04:43.247Z,-6.62
2023-02-11T09:07:09.695Z,-6.55
2023-02-11T09:09:36.294Z,-6.52
2023-02-11T09:12:02.762Z,-6.45
2023-02-11T09:14:29.285Z,-6.40
2023-02-11T09:16:56.118Z,-6.33
2023-02-11T09:19:23.240Z,-6.25
2023-02-11T09:21:49.711Z,-6.18
2023-02-11T09:24:16.204Z,-6.08
2023-02-11T09:26:43.501Z,-5.99
2023-02-11T09:29:10.151Z,-5.92
2023-02-11T09:31:36.666Z,-5.80
2023-02-11T09:34:04.776Z,-5.70
2023-02-11T09:36:33.340Z,-5.63
2023-02-11T09:39:00.706Z,-5.57
2023-02-11T09:41:29.890Z,-5.54
2023-02-11T09:43:58.377Z,-5.46
2023-02-11T09:46:26.060Z,-5.40
2023-02-11T09:48:53.789Z,-5.34
2023-02-11T09:51:40.563Z,-5.29
2023-02-11T09:54:33.131Z,-5.21
2023-02-11T09:56:59.638Z,-5.12
2023-02-11T09:59:26.120Z,-5.05
2023-02-11T10:02:12.161Z,-5.00
2023-02-11T10:04:57.473Z,-4.93
2023-02-11T10:07:40.232Z,-4.88
2023-02-11T10:10:19.674Z,-4.81
2023-02-11T10:12:55.173Z,-4.72
2023-02-11T10:15:25.878Z,-4.66
2023-02-11T10:18:07.661Z,-4.55
2023-02-11T10:20:50.195Z,-4.44
2023-02-11T10:23:19.621Z,-4.29
2023-02-11T10:25:49.021Z,-4.19
2023-02-11T10:28:17.435Z,-4.04
2023-02-11T10:30:49.731Z,-3.92
2023-02-11T10:33:23.221Z,-3.82
2023-02-11T10:35:49.775Z,-3.70
2023-02-11T10:38:16.245Z,-3.63
2023-02-11T10:40:42.717Z,-3.52
2023-02-11T10:43:13.966Z,-3.46
2023-02-11T10:45:45.256Z,-3.38
2023-02-11T10:48:30.653Z,-3.30
2023-02-11T10:51:17.484Z,-3.19
2023-02-11T10:53:44.931Z,-3.06
2023-02-11T10:56:13.038Z,-2.92
2023-02-11T10:58:57.919Z,-2.73
2023-02-11T11:01:37.286Z,-2.60
2023-02-11T11:04:03.792Z,-2.47
2023-02-11T11:06:33.813Z,-2.35
2023-02-11T11:09:01.158Z,-2.15
2023-02-11T11:11:27.611Z,-2.02
2023-02-11T11:13:58.178Z,-1.90
2023-02-11T11:16:28.727Z,-1.72
2023-02-11T11:19:07.382Z,-1.48
2023-02-11T11:21:41.159Z,-1.33
2023-02-11T11:24:29.465Z,-1.19
2023-02-11T11:26:57.251Z,-1.05
2023-02-11T11:29:38.304Z,-0.96
2023-02-11T11:32:22.284Z,-0.89
2023-02-11T11:34:54.132Z,-0.81
2023-02-11T11:37:23.295Z,-0.78
2023-02-11T11:39:57.899Z,-0.67
2023-02-11T11:42:29.488Z,-0.65
2023-02-11T11:45:00.409Z,-0.64
2023-02-11T11:47:34.041Z,-0.65
2023-02-11T11:50:00.449Z,-0.64
2023-02-11T11:52:46.464Z,-0.55
2023-02-11T11:55:28.167Z,-0.52
2023-02-11T11:57:54.887Z,-0.46
2023-02-11T12:00:23.941Z,-0.41
2023-02-11T12:03:13.075Z,-0.34
2023-02-11T12:05:47.010Z,-0.31
2023-02-11T12:08:16.476Z,-0.26
2023-02-11T12:10:42.894Z,-0.23
2023-02-11T12:13:27.859Z,-0.17
2023-02-11T12:16:10.147Z,-0.06
2023-02-11T12:18:39.477Z,0.05
2023-02-11T12:21:19.756Z,0.14
2023-02-11T12:23:49.012Z,0.19
2023-02-11T12:26:17.987Z,0.25
2023-02-11T12:28:56.617Z,0.32
2023-02-11T12:31:37.235Z,0.32
2023-02-11T12:34:22.222Z,0.33
2023-02-11T12:37:05.679Z,0.36
2023-02-11T12:39:40.192Z,0.40
2023-02-11T12:42:25.358Z,0.39
2023-02-11T12:44:57.792Z,0.40
2023-02-11T12:47:24.209Z,0.39
2023-02-11T12:50:00.866Z,0.40
2023-02-11T12:52:36.623Z,0.40
2023-02-11T12:55:15.284Z,0.40
2023-02-11T12:57:42.888Z,0.47
2023-02-11T13:00:18.544Z,0.49
2023-02-11T13:02:54.516Z,0.53
2023-02-11T13:05:29.533Z,0.56
2023-02-11T13:08:03.139Z,0.57
2023-02-11T13:10:29.559Z,0.58
2023-02-11T13:13:15.656Z,0.62
2023-02-11T13:15:51.214Z,0.61
2023-02-11T13:18:19.184Z,0.59
2023-02-11T13:20:57.324Z,0.62
2023-02-11T13:23:31.767Z,0.63
2023-02-11T13:26:02.784Z,0.65
2023-02-11T13:28:36.676Z,0.62
2023-02-11T13:31:07.159Z,0.62
2023-02-11T13:33:37.679Z,0.62
2023-02-11T13:36:04.855Z,0.57
2023-02-11T13:38:32.076Z,0.53
2023-02-11T13:41:06.817Z,0.51
2023-02-11T13:43:34.777Z,0.56
2023-02-11T13:46:02.941Z,0.60
2023-02-11T13:48:31.540Z,0.62
2023-02-11T13:51:00.362Z,0.64
2023-02-11T13:53:27.630Z,0.63
2023-02-11T13:56:07.888Z,0.64
2023-02-11T13:58:37.238Z,0.58
2023-02-11T14:01:03.760Z,0.56
2023-02-11T14:03:56.217Z,0.55
2023-02-11T14:06:42.497Z,0.56
2023-02-11T14:09:09.066Z,0.53
2023-02-11T14:11:41.877Z,0.54
2023-02-11T14:14:08.320Z,0.49
2023-02-11T14:16:38.488Z,0.43
2023-02-11T14:19:06.233Z,0.43
2023-02-11T14:21:37.575Z,0.41
2023-02-11T14:24:10.864Z,0.40
2023-02-11T14:26:43.216Z,0.34
2023-02-11T14:29:09.644Z,0.33
2023-02-11T14:31:42.093Z,0.33
2023-02-11T14:34:17.897Z,0.37
2023-02-11T14:36:49.845Z,0.31
2023-02-11T14:39:29.366Z,0.34
2023-02-11T14:41:56.009Z,0.35
2023-02-11T14:44:24.653Z,0.37
2023-02-11T14:46:53.412Z,0.31
2023-02-11T14:49:31.439Z,0.35
2023-02-11T14:52:06.500Z,0.30
2023-02-11T14:54:33.657Z,0.26
2023-02-11T14:57:07.260Z,0.28
2023-02-11T14:59:33.839Z,0.32
2023-02-11T15:02:00.446Z,0.30
2023-02-11T15:04:31.512Z,0.28
2023-02-11T15:07:02.219Z,0.29
2023-02-11T15:09:29.431Z,0.28
2023-02-11T15:11:57.790Z,0.26
2023-02-11T15:14:24.486Z,0.31
2023-02-11T15:16:53.500Z,0.38
2023-02-11T15:19:22.940Z,0.40
2023-02-11T15:21:50.850Z,0.37
2023-02-11T15:24:31.048Z,0.39
2023-02-11T15:26:58.598Z,0.38
2023-02-11T15:29:26.688Z,0.35
2023-02-11T15:32:07.333Z,0.35
2023-02-11T15:34:34.570Z,0.30
2023-02-11T15:37:02.085Z,0.23
2023-02-11T15:39:35.082Z,0.22
2023-02-11T15:42:20.092Z,0.22
2023-02-11T15:44:49.183Z,0.16
2023-02-11T15:47:21.908Z,0.07
2023-02-11T15:49:48.966Z,0.07
2023-02-11T15:52:22.265Z,0.11
2023-02-11T15:54:48.986Z,0.17
2023-02-11T15:57:16.440Z,0.18
2023-02-11T15:59:46.839Z,0.20
2023-02-11T16:02:18.584Z,0.23
2023-02-11T16:04:53.635Z,0.24
2023-02-11T16:07:38.460Z,0.25
2023-02-11T16:10:05.149Z,0.29
2023-02-11T16:12:31.632Z,0.26
2023-02-11T16:15:20.069Z,0.24
2023-02-11T16:17:49.693Z,0.19
2023-02-11T16:20:19.730Z,0.13
2023-02-11T16:22:46.934Z,0.09
2023-02-11T16:25:23.395Z,0.07
2023-02-11T16:27:52.045Z,0.05
2023-02-11T16:30:21.635Z,0.00
2023-02-11T16:32:48.133Z,-0.01
2023-02-11T16:35:14.558Z,-0.02
2023-02-11T16:37:41.035Z,0.00
2023-02-11T16:40:07.907Z,-0.03
2023-02-11T16:42:34.430Z,-0.06
2023-02-11T16:45:00.901Z,-0.04
2023-02-11T16:47:28.286Z,-0.07
2023-02-11T16:49:55.818Z,-0.10
2023-02-11T16:52:22.585Z,-0.10
2023-02-11T16:54:49.325Z,-0.11
2023-02-11T16:57:17.004Z,-0.10
2023-02-11T16:59:43.919Z,-0.11
2023-02-11T17:02:33.365Z,-0.12
2023-02-11T17:05:01.418Z,-0.14
2023-02-11T17:07:28.471Z,-0.14
2023-02-11T17:09:55.366Z,-0.17
2023-02-11T17:12:22.116Z,-0.18
2023-02-11T17:14:48.567Z,-0.18
2023-02-11T17:17:16.287Z,-0.16
2023-02-11T17:19:42.732Z,-0.13
2023-02-11T17:22:10.498Z,-0.17
2023-02-11T17:24:37.167Z,-0.19
2023-02-11T17:27:03.881Z,-0.17
2023-02-11T17:29:30.617Z,-0.13
2023-02-11T17:31:57.202Z,-0.20
2023-02-11T17:34:24.119Z,-0.20
2023-02-11T17:36:50.640Z,-0.17
2023-02-11T17:39:17.115Z,-0.17
2023-02-11T17:41:43.583Z,-0.20
2023-02-11T17:44:12.367Z,-0.27
2023-02-11T17:46:38.902Z,-0.28
2023-02-11T17:49:05.393Z,-0.27
2023-02-11T17:51:34.657Z,-0.28
2023-02-11T17:54:02.426Z,-0.33
2023-02-11T17:56:30.845Z,-0.36
2023-02-11T17:58:57.279Z,-0.38
2023-02-11T18:01:26.717Z,-0.34
2023-02-11T18:03:53.173Z,-0.41
2023-02-11T18:06:19.849Z,-0.46
2023-02-11T18:08:47.589Z,-0.48
2023-02-11T18:11:15.151Z,-0.52
2023-02-11T18:13:41.677Z,-0.49
2023-02-11T18:16:15.701Z,-0.51
2023-02-11T18:18:43.355Z,-0.51
2023-02-11T18:21:16.983Z,-0.58
2023-02-11T18:23:44.266Z,-0.71
2023-02-11T18:26:12.014Z,-0.71
2023-02-11T18:28:39.144Z,-0.68
2023-02-11T18:31:06.162Z,-0.69
2023-02-11T18:33:32.748Z,-0.67
2023-02-11T18:35:59.193Z,-0.75
2023-02-11T18:38:25.724Z,-0.74
2023-02-11T18:40:52.457Z,-0.80
2023-02-11T18:43:22.237Z,-0.82
2023-02-11T18:45:49.644Z,-0.84
2023-02-11T18:48:16.866Z,-0.87
2023-02-11T18:50:44.608Z,-0.89
2023-02-11T18:53:11.702Z,-0.88
2023-02-11T18:55:42.403Z,-0.86
2023-02-11T18:58:09.234Z,-0.92
2023-02-11T19:00:36.311Z,-0.93
2023-02-11T19:03:02.864Z,-0.97
2023-02-11T19:05:33.335Z,-0.98
2023-02-11T19:08:00.508Z,-1.01
2023-02-11T19:10:27.588Z,-1.08
2023-02-11T19:12:58.986Z,-1.15
2023-02-11T19:15:26.198Z,-1.15
2023-02-11T19:17:53.711Z,-1.13
2023-02-11T19:20:20.288Z,-1.09
2023-02-11T19:22:46.737Z,-1.10
2023-02-11T19:25:13.740Z,-1.07
2023-02-11T19:27:41.943Z,-1.02
2023-02-11T19:30:09.099Z,-1.10
2023-02-11T19:32:35.541Z,-1.12
2023-02-11T19:35:01.997Z,-1.09
2023-02-11T19:37:28.447Z,-1.18
2023-02-11T19:39:54.891Z,-1.18
2023-02-11T19:42:21.376Z,-1.17
2023-02-11T19:44:47.799Z,-1.17
2023-02-11T19:47:14.491Z,-1.11
2023-02-11T19:49:41.052Z,-1.11
2023-02-11T19:52:07.561Z,-1.08
2023-02-11T19:54:34.074Z,-1.02
2023-02-11T19:57:00.585Z,-1.12
2023-02-11T19:59:27.095Z,-1.15
2023-02-11T20:01:53.955Z,-1.11
2023-02-11T20:04:20.664Z,-1.06
2023-02-11T20:06:49.826Z,-1.07
2023-02-11T20:09:16.385Z,-1.10
2023-02-11T20:11:43.187Z,-1.08
2023-02-11T20:14:12.159Z,-1.09
2023-02-11T20:16:48.253Z,-1.10
2023-02-11T20:19:18.237Z,-1.06
2023-02-11T20:21:47.199Z,-1.04
2023-02-11T20:24:14.187Z,-1.10
2023-02-11T20:26:42.427Z,-1.08
2023-02-11T20:29:09.531Z,-1.02
2023-02-11T20:31:36.402Z,-1.07
2023-02-11T20:34:03.652Z,-1.06
2023-02-11T20:36:32.132Z,-1.13
2023-02-11T20:38:59.770Z,-1.16
2023-02-11T20:41:28.480Z,-1.15
2023-02-11T20:43:55.579Z,-1.15
2023-02-11T20:46:24.484Z,-1.18
2023-02-11T20:48:51.083Z,-1.15
2023-02-11T20:51:19.152Z,-1.11
2023-02-11T20:53:48.838Z,-1.04
2023-02-11T20:56:16.075Z,-1.04
2023-02-11T20:58:42.613Z,-1.01
2023-02-11T21:01:16.735Z,-0.99
2023-02-11T21:03:44.223Z,-1.00
2023-02-11T21:06:11.435Z,-0.98
2023-02-11T21:08:38.124Z,-0.94
2023-02-11T21:11:08.514Z,-0.97
2023-02-11T21:13:35.972Z,-0.96
2023-02-11T21:16:02.599Z,-0.95
2023-02-11T21:18:29.156Z,-0.98
2023-02-11T21:20:55.867Z,-0.98
2023-02-11T21:23:22.289Z,-0.95
2023-02-11T21:25:48.753Z,-0.97
2023-02-11T21:28:15.278Z,-0.99
2023-02-11T21:30:42.059Z,-1.06
2023-02-11T21:33:08.568Z,-1.02
2023-02-11T21:35:35.583Z,-0.95
2023-02-11T21:38:02.054Z,-0.98
2023-02-11T21:40:29.363Z,-1.02
2023-02-11T21:42:56.759Z,-0.97
2023-02-11T21:45:23.929Z,-0.91
2023-02-11T21:47:50.817Z,-0.90
2023-02-11T21:50:17.492Z,-0.93
2023-02-11T21:52:43.928Z,-0.91
2023-02-11T21:55:10.543Z,-0.92
2023-02-11T21:57:36.964Z,-0.92
2023-02-11T22:00:04.543Z,-0.87
2023-02-11T22:02:30.966Z,-0.94
2023-02-11T22:04:57.454Z,-0.91
2023-02-11T22:07:23.988Z,-0.87
2023-02-11T22:09:52.206Z,-0.89
2023-02-11T22:12:18.681Z,-0.87
2023-02-11T22:14:45.194Z,-0.84
2023-02-11T22:17:11.722Z,-0.85
2023-02-11T22:19:38.151Z,-0.87
2023-02-11T22:22:04.597Z,-0.81
2023-02-11T22:24:31.068Z,-0.79
2023-02-11T22:26:57.499Z,-0.78
2023-02-11T22:29:23.959Z,-0.77
2023-02-11T22:31:50.473Z,-0.75
2023-02-11T22:34:16.945Z,-0.73
2023-02-11T22:36:45.382Z,-0.77
2023-02-11T22:39:13.354Z,-0.75
2023-02-11T22:41:43.621Z,-0.73
2023-02-11T22:44:10.139Z,-0.65
2023-02-11T22:46:37.034Z,-0.66
2023-02-11T22:49:04.164Z,-0.64
2023-02-11T22:51:30.717Z,-0.60
2023-02-11T22:53:58.416Z,-0.61
2023-02-11T22:56:25.430Z,-0.58
2023-02-11T22:58:53.291Z,-0.58
2023-02-11T23:01:19.928Z,-0.53
2023-02-11T23:03:46.379Z,-0.43
2023-02-11T23:06:13.055Z,-0.36
2023-02-11T23:08:40.298Z,-0.31
2023-02-11T23:11:14.830Z,-0.33
2023-02-11T23:13:42.052Z,-0.41
2023-02-11T23:16:10.286Z,-0.41
2023-02-11T23:18:37.719Z,-0.36
2023-02-11T23:21:05.726Z,-0.29
2023-02-11T23:23:32.741Z,-0.21
2023-02-11T23:25:59.410Z,-0.16
2023-02-11T23:28:25.947Z,-0.15
2023-02-11T23:30:52.438Z,-0.14
2023-02-11T23:33:18.927Z,-0.11
2023-02-11T23:35:45.389Z,-0.10
2023-02-11T23:38:11.827Z,-0.08
2023-02-11T23:40:38.308Z,-0.03
2023-02-11T23:43:04.742Z,0.11
2023-02-11T23:45:31.312Z,0.19
2023-02-11T23:47:57.778Z,0.17
2023-02-11T23:50:24.194Z,0.14
2023-02-11T23:52:50.660Z,0.18
2023-02-11T23:55:17.072Z,0.24
2023-02-11T23:57:43.488Z,0.32
